Terminal Aerodrome Forecast
Issued by NWS

Home | Current Version | Previous Version | Text Only | Print | Product List | Glossary On
Versions: 1 2 3 4 5 6 7 8 9 10 11 12 13 14 15 16
000
FTUS41 KCAR 271141
TAFPQI
TAF
KPQI 271141Z 2712/2812 02012G18KT P6SM OVC050
     FM271300 01014G22KT 1 1/2SM -SN OVC015
     FM271500 01016G27KT 1/2SM SN BLSN OVC005
     FM272300 36018G30KT 3/4SM -SN BLSN OVC007
     FM280200 36015G28KT 1 1/2SM -SN BLSN OVC008
      AMD LTD TO CLD VIS AND WIND=

USA.gov is the U.S. government's official web portal to all federal, state and local government web resources and services.